Mount Union, Ohio
Current Conditions -  °F | °C
As of 6:07 AM on Thursday 23 Oct 2014 (Local Time) from KCAK Reporting Station
Broken Clouds Broken Clouds  
Wind Chill: 43°   Ceiling: 1500
Heat Index: 46°   Visibility: 8mi
Dew Point: 43°   Wind: 7mph
Humidity: 87%   Direction: 330°NNW
Pressure: 30.18"   Gusts: NA
Location:  40.9181°N, 81.1273°W
Report Text: KCAK 231007Z 33006KT 8SM BKN015 08/06 A3018 RMK AO2 $
Loading
Personal Weather Stations






























Interactive Weather Map
Tropical Storm Tracking
New forecast layout! Learn more

10-Day Weather Forecast

Advertisements
Track Severe Weather on mobile